• Join FlightAware (Why Join?)
  • Login
  • US Flag 
04:27PM EST


 

Airport Tracker/Info


-or-


 

Live Flight TrackerFlight Track Log ✈ AFL150 ✈ 28-Mar-2014 ✈ UUEE / SVO - MUHA / HAV

Flight Track Log - Related Links

Times and Time Zones

All times are in EDT time to prevent confusion due to time zone crossing. See the AFL150 flight status page for this flight to view local times or setup timezone preferences in your user account.

Time Position Orientation Groundspeed Altitude Reporting Facility
EDT Latitude Longitude Course Direction KTS MPH feet Rate Location/Type
06:07AM 56.3142 36.9237 319° Northwest  Level FlightAware Approximate
06:08AM 56.4044 36.7788 318° Northwest  Level FlightAware Approximate
06:09AM 56.4945 36.6332 318° Northwest  Level FlightAware Approximate
06:10AM 56.5844 36.4870 318° Northwest  Level FlightAware Approximate
06:11AM 56.6741 36.3400 318° Northwest  Level FlightAware Approximate
06:12AM 56.7636 36.1923 318° Northwest  Level FlightAware Approximate
06:13AM 56.8529 36.0440 318° Northwest  Level FlightAware Approximate
06:14AM 56.9421 35.8949 318° Northwest  Level FlightAware Approximate
06:15AM 57.0311 35.7451 318° Northwest  Level FlightAware Approximate
06:16AM 57.1199 35.5946 317° Northwest  Level FlightAware Approximate
06:17AM 57.2086 35.4433 317° Northwest  Level FlightAware Approximate
06:18AM 57.2970 35.2914 317° Northwest  Level FlightAware Approximate
06:19AM 57.3853 35.1387 317° Northwest  Level FlightAware Approximate
06:20AM 57.4734 34.9852 317° Northwest  Level FlightAware Approximate
06:21AM 57.5613 34.8311 317° Northwest  Level FlightAware Approximate
06:22AM 57.6490 34.6762 317° Northwest  Level FlightAware Approximate
06:23AM 57.6809 34.6129 315° West  Level FlightAware Approximate
06:24AM 57.7660 34.4525 315° West  Level FlightAware Approximate
06:25AM 57.8508 34.2912 315° West  Level FlightAware Approximate
06:26AM 57.9355 34.1292 315° West  Level FlightAware Approximate
06:27AM 58.0200 33.9665 314° West  Level FlightAware Approximate
06:28AM 58.1042 33.8030 314° West  Level FlightAware Approximate
06:29AM 58.1883 33.6387 314° West  Level FlightAware Approximate
06:30AM 58.2721 33.4736 314° West  Level FlightAware Approximate
06:31AM 58.3557 33.3077 314° West  Level FlightAware Approximate
06:32AM 58.4391 33.1411 314° West  Level FlightAware Approximate
06:33AM 58.5223 32.9737 314° West  Level FlightAware Approximate
06:33AM 56.4711 32.1108 279° West 478 550 34,000  Level FlightAware ADS-B
06:34AM 56.4931 31.8459 278° West 482 555 34,000  Level FlightAware ADS-B
06:35AM 56.5185 31.5285 278° West 484 557 34,000  Level FlightAware ADS-B
06:36AM 56.5435 31.2680 284° West 474 545 34,000  Level FlightAware ADS-B (EVDA / DGP)
06:37AM 56.5829 31.0688 295° West 457 526 34,000  Level FlightAware ADS-B
06:38AM 56.6461 30.8714 305° West 443 510 34,000  Level FlightAware ADS-B
06:39AM 56.7251 30.6955 307° West 444 511 34,000  Level FlightAware ADS-B
06:40AM 56.7943 30.5142 305° West 448 516 34,000  Level FlightAware ADS-B
06:41AM 56.8646 30.3259 304° West 450 518 34,000  Level FlightAware ADS-B
06:42AM 56.9349 30.1345 304° West 453 521 34,000  Level FlightAware ADS-B
06:43AM 57.0044 29.9438 304° West 454 522 34,000  Level FlightAware ADS-B
06:44AM 57.0729 29.7544 304° West 455 524 34,000  Level FlightAware ADS-B
06:45AM 57.1433 29.5580 303° West 456 525 34,000  Level FlightAware ADS-B
06:46AM 57.2130 29.3621 303° West 458 527 34,000  Level FlightAware ADS-B
06:47AM 57.2820 29.1664 303° West 459 528 34,000  Level FlightAware ADS-B
06:48AM 57.3516 28.9679 303° West 460 529 34,000  Level FlightAware ADS-B
06:49AM 57.4217 28.7662 303° West 461 531 34,000  Level FlightAware ADS-B
06:50AM 57.4880 28.5740 303° West 461 531 34,000  Level FlightAware ADS-B
06:51AM 57.5597 28.3643 302° West 460 529 34,000  Level FlightAware ADS-B
06:52AM 57.6239 28.1750 302° West 461 531 34,000  Level FlightAware ADS-B (EVDA / DGP)
06:53AM 57.6886 27.9829 302° West 462 532 34,000  Level FlightAware ADS-B (EVDA / DGP)
06:54AM 57.7636 27.7579 302° West 463 533 34,000  Level FlightAware ADS-B (EVDA / DGP)
06:55AM 57.8306 27.5552 300° West 465 535 34,000  Level FlightAware ADS-B (EVDA / DGP)
06:56AM 57.8782 27.3258 291° West 474 545 34,000  Level FlightAware ADS-B (EVDA / DGP)
06:57AM 57.9247 27.0954 291° West 476 548 34,000  Level FlightAware ADS-B (EVDA / DGP)
06:58AM 57.9712 26.8624 291° West 475 547 34,000  Level FlightAware ADS-B (EVDA / DGP)
06:59AM 58.0154 26.6387 290° West 476 548 34,000  Level FlightAware ADS-B (EVDA / DGP)
07:00AM 58.0624 26.3976 290° West 477 549 34,000  Level FlightAware ADS-B (EVDA / DGP)
07:01AM 58.1079 26.1617 290° West 479 551 34,000  Level FlightAware ADS-B (EVDA / DGP)
07:02AM 58.1526 25.9274 290° West 478 550 34,000  Level FlightAware ADS-B (EVDA / DGP)
07:03AM 58.1966 25.6933 290° West 477 549 34,000  Level FlightAware ADS-B (EVDA / DGP)
07:04AM 58.2407 25.4565 289° West 478 550 34,000  Level FlightAware ADS-B (EVDA / DGP)
07:05AM 58.2713 25.2897 289° West 479 551 34,000  Level FlightAware ADS-B (EVDA / DGP)
07:06AM 58.2976 25.1458 289° West 480 552 34,000  Level FlightAware ADS-B (EVDA / DGP)
07:07AM 58.3476 24.8683 289° West 480 552 34,000  Level FlightAware ADS-B
07:19AM 58.7854 21.8868 284° West 492 566 34,000  Level FlightAware ADS-B
07:20AM 58.8090 21.7057 284° West 493 567 34,000  Level FlightAware ADS-B
07:20AM 58.8271 21.5651 284° West 492 566 34,000  Level FlightAware ADS-B
07:21AM 58.8511 21.3765 284° West 492 566 34,000  Level FlightAware ADS-B
07:22AM 58.8738 21.1956 284° West 492 566 34,000  Level FlightAware ADS-B
07:22AM 58.8928 21.0433 284° West 492 566 34,000  Level FlightAware ADS-B
07:23AM 58.9210 20.8744 292° West 491 565 34,000  Level FlightAware ADS-B
07:24AM 58.9976 20.5583 295° West 490 564 34,000  Level FlightAware ADS-B
07:25AM 59.0407 20.3786 295° West 491 565 34,000  Level FlightAware ADS-B
07:26AM 59.0763 20.2278 295° West 490 564 34,000  Level FlightAware ADS-B
07:26AM 59.1165 20.0572 294° West 491 565 34,000  Level FlightAware ADS-B
07:27AM 59.1502 19.8996 287° West 490 564 34,000  Level FlightAware ADS-B
07:28AM 59.1730 19.7364 286° West 490 564 34,000  Level FlightAware ADS-B
07:28AM 59.1997 19.5532 286° West 489 563 34,000  Level FlightAware ADS-B
07:29AM 59.2236 19.3867 286° West 490 564 34,000  Level FlightAware ADS-B
07:30AM 59.2472 19.2209 286° West 491 565 34,000  Level FlightAware ADS-B
07:30AM 59.2715 19.0479 285° West 490 564 34,000  Level FlightAware ADS-B
07:31AM 59.2947 18.8807 285° West 491 565 34,000  Level FlightAware ADS-B
07:32AM 59.3190 18.7043 285° West 493 567 34,000  Level FlightAware ADS-B
07:32AM 59.3423 18.5332 285° West 492 566 34,000  Level FlightAware ADS-B
07:33AM 59.3656 18.3592 285° West 491 565 34,000  Level FlightAware ADS-B
07:34AM 59.3877 18.1934 285° West 492 566 34,000  Level FlightAware ADS-B
07:34AM 59.4111 18.0153 284° West 491 565 34,000  Level FlightAware ADS-B
07:35AM 59.4325 17.8503 284° West 493 567 34,000  Level FlightAware ADS-B
07:36AM 59.4557 17.6702 284° West 494 568 34,000  Level FlightAware ADS-B
07:36AM 59.4776 17.4978 284° West 496 571 34,000  Level FlightAware ADS-B
07:37AM 59.4993 17.3245 284° West 495 570 34,000  Level FlightAware ADS-B
07:38AM 59.5213 17.1471 284° West 495 570 34,000  Level FlightAware ADS-B
07:38AM 59.5434 16.9666 283° West 495 570 34,000  Level FlightAware ADS-B
07:39AM 59.5648 16.7895 283° West 494 568 34,000  Level FlightAware ADS-B
07:40AM 59.5852 16.6180 283° West 494 568 34,000  Level FlightAware ADS-B
07:40AM 59.6057 16.4452 283° West 495 570 34,000  Level FlightAware ADS-B
07:41AM 59.6266 16.2654 283° West 495 570 34,000  Level FlightAware ADS-B
07:42AM 59.6464 16.0936 283° West 495 570 34,000  Level FlightAware ADS-B
07:42AM 59.6668 15.9137 283° West 495 570 34,000  Level FlightAware ADS-B
07:43AM 59.6859 15.7434 282° West 495 570 34,000  Level FlightAware ADS-B
07:44AM 59.7245 15.3922 281° West 492 566 34,000  Level FlightAware ADS-B
07:45AM 59.7455 15.1965 282° West 494 568 34,000  Level FlightAware ADS-B
07:45AM 59.7602 15.0581 282° West 493 567 34,000  Level FlightAware ADS-B
07:46AM 59.7804 14.8659 282° West 493 567 34,000  Level FlightAware ADS-B
07:46AM 59.7947 14.7274 282° West 493 567 34,000  Level FlightAware ADS-B
07:47AM 59.8151 14.5275 281° West 493 567 34,000  Level FlightAware ADS-B
07:48AM 59.8285 14.3946 281° West 492 566 34,000  Level FlightAware ADS-B
07:48AM 59.8421 14.2587 281° West 492 566 34,000  Level FlightAware ADS-B
07:49AM 59.8552 14.1247 280° West 492 566 34,000  Level FlightAware ADS-B
07:49AM 59.8683 13.9914 280° West 491 565 34,000  Level FlightAware ADS-B
07:50AM 59.8874 13.7927 280° West 491 565 34,000  Level FlightAware ADS-B
07:50AM 59.9001 13.6591 280° West 491 565 34,000  Level FlightAware ADS-B
07:51AM 59.9126 13.5254 280° West 492 566 34,000  Level FlightAware ADS-B
07:52AM 59.9406 13.3236 287° West 499 574 34,000  Level FlightAware ADS-B
07:52AM 59.9615 13.1842 286° West 496 571 34,000  Level FlightAware ADS-B
07:53AM 59.9906 12.9885 286° West 495 570 34,000  Level FlightAware ADS-B
07:53AM 60.0097 12.8592 286° West 495 570 34,000  Level FlightAware ADS-B
07:54AM 60.0392 12.6579 285° West 495 570 34,000  Level FlightAware ADS-B
07:55AM 60.0585 12.5245 285° West 494 568 34,000  Level FlightAware ADS-B
07:55AM 60.0784 12.3858 285° West 494 568 34,000  Level FlightAware ADS-B
07:56AM 60.1074 12.1811 285° West 494 568 34,000  Level FlightAware ADS-B
07:56AM 60.1269 12.0429 286° West 496 571 34,000  Level FlightAware ADS-B
07:57AM 60.1543 11.8452 286° West 495 570 34,000  Level FlightAware ADS-B
07:58AM 60.1744 11.6991 285° West 496 571 34,000  Level FlightAware ADS-B
07:58AM 60.1934 11.5597 285° West 494 568 34,000  Level FlightAware ADS-B
07:59AM 60.2168 11.3862 285° West 494 568 34,000  Level FlightAware ADS-B
08:00AM 60.2387 11.2212 285° West 494 568 34,000  Level FlightAware ADS-B
08:00AM 60.2646 11.0247 284° West 491 565 34,000 Level FlightAware ADS-B
08:03AM 60.3311 10.5056 285° West  Level Estimated
08:04AM 60.3607 10.2690 284° West  Level Estimated
08:05AM 60.3899 10.0319 284° West  Level Estimated
08:06AM 60.4186 9.7945 284° West  Level Estimated
08:07AM 60.4469 9.5566 284° West  Level Estimated
08:08AM 60.4748 9.3183 283° West  Level Estimated
08:09AM 60.5022 9.0796 283° West  Level Estimated
08:10AM 60.5293 8.8405 283° West  Level Estimated
08:11AM 60.5559 8.6010 283° West  Level Estimated
08:12AM 60.5820 8.3610 283° West  Level Estimated
08:13AM 60.6078 8.1208 282° West  Level Estimated
08:14AM 60.6331 7.8801 282° West  Level Estimated
08:15AM 60.6580 7.6391 282° West  Level Estimated
08:16AM 60.6824 7.3976 282° West  Level Estimated
08:17AM 60.7064 7.1559 282° West  Level Estimated
08:18AM 60.7300 6.9137 281° West  Level Estimated
08:19AM 60.7531 6.6712 281° West  Level Estimated
08:20AM 60.7758 6.4284 281° West  Level Estimated
08:21AM 60.7981 6.1852 281° West  Level Estimated
08:22AM 60.8199 5.9417 281° West  Level Estimated
08:23AM 60.8413 5.6979 280° West  Level Estimated
08:24AM 60.8622 5.4537 280° West  Level Estimated
08:25AM 60.8827 5.2093 280° West  Level Estimated
08:26AM 60.9027 4.9645 280° West  Level Estimated
08:27AM 60.9224 4.7194 279° West  Level Estimated
08:28AM 60.9415 4.4740 279° West  Level Estimated
08:29AM 60.9602 4.2283 279° West  Level Estimated
08:30AM 60.9785 3.9824 279° West  Level Estimated
08:31AM 60.9963 3.7361 279° West  Level Estimated
08:32AM 61.0137 3.4896 278° West  Level Estimated
08:33AM 61.0306 3.2428 278° West  Level Estimated
08:34AM 61.0470 2.9957 278° West  Level Estimated
08:35AM 61.0631 2.7485 278° West  Level Estimated
08:36AM 61.0786 2.5009 278° West  Level Estimated
08:37AM 61.0937 2.2531 277° West  Level Estimated
08:38AM 61.1084 2.0051 277° West  Level Estimated
08:39AM 61.1226 1.7569 277° West  Level Estimated
08:40AM 61.1363 1.5084 277° West  Level Estimated
08:41AM 61.1496 1.2597 276° West  Level Estimated
08:42AM 61.1624 1.0108 276° West  Level Estimated
08:43AM 61.1748 0.7617 276° West  Level Estimated
08:44AM 61.1867 0.5125 276° West  Level Estimated
08:45AM 61.1982 0.2630 276° West  Level Estimated
08:46AM 61.2092 0.0134 275° West  Level Estimated
08:47AM 61.2197 -0.2364 275° West  Level Estimated
08:48AM 61.2298 -0.4864 275° West  Level Estimated
08:49AM 61.2394 -0.7365 275° West  Level Estimated
08:50AM 61.2486 -0.9868 274° West  Level Estimated
08:51AM 61.2573 -1.2372 274° West  Level Estimated
08:52AM 61.2655 -1.4878 274° West  Level Estimated
08:53AM 61.2733 -1.7385 274° West  Level Estimated
08:54AM 61.2806 -1.9893 274° West  Level Estimated
08:55AM 61.2874 -2.2402 273° West  Level Estimated
08:56AM 61.2938 -2.4912 273° West  Level Estimated
08:57AM 61.2997 -2.7423 273° West  Level Estimated
08:58AM 61.3052 -2.9936 273° West  Level Estimated
08:59AM 61.3102 -3.2448 272° West  Level Estimated
09:00AM 61.3147 -3.4962 272° West  Level Estimated
09:01AM 61.3188 -3.7477 272° West  Level Estimated
09:02AM 61.3224 -3.9992 272° West  Level Estimated
09:03AM 61.3255 -4.2507 272° West  Level Estimated
09:04AM 61.3282 -4.5023 271° West  Level Estimated
09:05AM 61.3304 -4.7540 271° West  Level Estimated
09:06AM 61.3321 -5.0056 271° West  Level Estimated
09:07AM 61.3334 -5.2573 271° West  Level Estimated
09:08AM 61.3342 -5.5090 270° West  Level Estimated
09:09AM 61.3346 -5.7608 270° West  Level Estimated
09:10AM 61.3344 -6.0125 270° West  Level Estimated
09:11AM 61.3339 -6.2642 270° West  Level Estimated
09:12AM 61.3328 -6.5159 270° West  Level Estimated
09:13AM 61.3313 -6.7676 269° West  Level Estimated
09:14AM 61.3293 -7.0193 269° West  Level Estimated
09:15AM 61.3268 -7.2709 269° West  Level Estimated
09:16AM 61.3239 -7.5225 269° West  Level Estimated
09:17AM 61.3205 -7.7740 269° West  Level Estimated
09:18AM 61.3167 -8.0255 268° West  Level Estimated
09:19AM 61.3124 -8.2769 268° West  Level Estimated
09:20AM 61.3076 -8.5282 268° West  Level Estimated
09:21AM 61.3024 -8.7795 268° West  Level Estimated
09:22AM 61.2967 -9.0306 267° West  Level Estimated
09:23AM 61.2905 -9.2817 267° West  Level Estimated
09:24AM 61.2839 -9.5327 267° West  Level Estimated
09:25AM 61.2768 -9.7835 267° West  Level Estimated
09:26AM 61.2692 -10.0343 267° West  Level Estimated
09:27AM 61.2612 -10.2849 266° West  Level Estimated
09:28AM 61.2528 -10.5354 266° West  Level Estimated
09:29AM 61.2438 -10.7857 266° West  Level Estimated
09:30AM 61.2344 -11.0359 266° West  Level Estimated
09:31AM 61.2245 -11.2860 265° West  Level Estimated
09:32AM 61.2142 -11.5358 265° West  Level Estimated
09:33AM 61.2034 -11.7856 265° West  Level Estimated
09:34AM 61.1922 -12.0351 265° West  Level Estimated
09:35AM 61.1805 -12.2845 265° West  Level Estimated
09:36AM 61.1683 -12.5336 264° West  Level Estimated
09:37AM 61.1557 -12.7826 264° West  Level Estimated
09:38AM 61.1427 -13.0314 264° West  Level Estimated
09:39AM 61.1291 -13.2800 264° West  Level Estimated
09:40AM 61.1152 -13.5283 263° West  Level Estimated
09:41AM 61.1007 -13.7764 263° West  Level Estimated
09:42AM 61.0858 -14.0243 263° West  Level Estimated
09:43AM 61.0705 -14.2720 263° West  Level Estimated
09:44AM 61.0547 -14.5194 263° West  Level Estimated
09:45AM 61.0384 -14.7666 262° West  Level Estimated
09:46AM 61.0217 -15.0135 262° West  Level Estimated
09:47AM 61.0046 -15.2601 262° West  Level Estimated
09:48AM 60.9870 -15.5065 262° West  Level Estimated
09:49AM 60.9689 -15.7526 262° West  Level Estimated
09:50AM 60.9504 -15.9984 261° West  Level Estimated
09:51AM 60.9315 -16.2440 261° West  Level Estimated
09:52AM 60.9121 -16.4892 261° West  Level Estimated
09:53AM 60.8922 -16.7341 261° West  Level Estimated
09:54AM 60.8720 -16.9788 260° West  Level Estimated
09:55AM 60.8512 -17.2231 260° West  Level Estimated
09:56AM 60.8301 -17.4671 260° West  Level Estimated
09:57AM 60.8084 -17.7107 260° West  Level Estimated
09:58AM 60.7864 -17.9541 260° West  Level Estimated
09:59AM 60.7639 -18.1970 259° West  Level Estimated
10:00AM 60.7410 -18.4397 259° West  Level Estimated
10:01AM 60.7176 -18.6820 259° West  Level Estimated
10:02AM 60.6938 -18.9239 259° West  Level Estimated
10:03AM 60.6696 -19.1655 259° West  Level Estimated
10:04AM 60.6449 -19.4067 258° West  Level Estimated
10:05AM 60.6198 -19.6476 258° West  Level Estimated
10:06AM 60.5943 -19.8881 258° West  Level Estimated
10:07AM 60.5683 -20.1281 258° West  Level Estimated
10:08AM 60.5419 -20.3678 257° West  Level Estimated
10:09AM 60.5151 -20.6071 257° West  Level Estimated
10:10AM 60.4878 -20.8460 257° West  Level Estimated
10:11AM 60.4601 -21.0845 257° West  Level Estimated
10:12AM 60.4320 -21.3226 257° West  Level Estimated
10:13AM 60.4035 -21.5603 256° West  Level Estimated
10:14AM 60.3745 -21.7975 256° West  Level Estimated
10:15AM 60.3452 -22.0344 256° West  Level Estimated
10:16AM 60.3154 -22.2708 256° West  Level Estimated
10:17AM 60.2852 -22.5067 256° West  Level Estimated
10:18AM 60.2545 -22.7423 255° West  Level Estimated
10:19AM 60.2235 -22.9774 255° West  Level Estimated
10:20AM 60.1920 -23.2120 255° West  Level Estimated
10:21AM 60.1601 -23.4462 255° West  Level Estimated
10:22AM 60.1278 -23.6799 255° West  Level Estimated
10:23AM 60.0951 -23.9132 254° West  Level Estimated
10:24AM 60.0620 -24.1460 254° West  Level Estimated
10:25AM 60.0285 -24.3783 254° West  Level Estimated
10:26AM 59.9946 -24.6102 254° West  Level Estimated
10:27AM 59.9603 -24.8415 254° West  Level Estimated
10:28AM 59.9255 -25.0724 253° West  Level Estimated
10:29AM 59.8904 -25.3029 253° West  Level Estimated
10:30AM 59.8549 -25.5328 253° West  Level Estimated
10:31AM 59.8189 -25.7622 253° West  Level Estimated
10:32AM 59.7826 -25.9911 253° West  Level Estimated
10:33AM 59.7459 -26.2196 252° West  Level Estimated
10:34AM 59.7087 -26.4475 252° West  Level Estimated
10:35AM 59.6712 -26.6749 252° West  Level Estimated
10:36AM 59.6333 -26.9018 252° West  Level Estimated
10:37AM 59.5950 -27.1282 252° West  Level Estimated
10:38AM 59.5563 -27.3541 251° West  Level Estimated
10:39AM 59.5172 -27.5795 251° West  Level Estimated
10:40AM 59.4777 -27.8043 251° West  Level Estimated
10:41AM 59.4379 -28.0286 251° West  Level Estimated
10:42AM 59.3977 -28.2524 251° West  Level Estimated
10:43AM 59.3570 -28.4756 250° West  Level Estimated
10:44AM 59.3160 -28.6983 250° West  Level Estimated
10:45AM 59.2747 -28.9205 250° West  Level Estimated
10:46AM 59.2329 -29.1421 250° West  Level Estimated
10:47AM 59.1908 -29.3632 250° West  Level Estimated
10:48AM 59.1483 -29.5837 249° West  Level Estimated
10:49AM 59.1054 -29.8037 249° West  Level Estimated
10:50AM 59.0621 -30.0231 249° West  Level Estimated
10:51AM 59.0185 -30.2420 249° West  Level Estimated
10:52AM 58.9745 -30.4603 249° West  Level Estimated
10:53AM 58.9301 -30.6781 249° West  Level Estimated
10:54AM 58.8854 -30.8953 248° West  Level Estimated
10:55AM 58.8403 -31.1119 248° West  Level Estimated
10:56AM 58.7949 -31.3280 248° West  Level Estimated
10:57AM 58.7491 -31.5435 248° West  Level Estimated
10:58AM 58.7029 -31.7584 248° West  Level Estimated
10:59AM 58.6564 -31.9728 247° West  Level Estimated
11:00AM 58.6095 -32.1866 247° West  Level Estimated
11:01AM 58.5623 -32.3998 247° West  Level Estimated
11:02AM 58.5147 -32.6124 247° West  Level Estimated
11:03AM 58.4668 -32.8245 247° West  Level Estimated
11:04AM 58.4185 -33.0359 247° West  Level Estimated
11:05AM 58.3699 -33.2468 246° West  Level Estimated
11:06AM 58.3209 -33.4572 246° West  Level Estimated
11:07AM 58.2716 -33.6669 246° West  Level Estimated
11:08AM 58.2219 -33.8760 246° West  Level Estimated
11:09AM 58.1719 -34.0846 246° West  Level Estimated
11:10AM 58.1216 -34.2926 245° Southwest  Level Estimated
11:11AM 58.0709 -34.5000 245° Southwest  Level Estimated
11:12AM 58.0199 -34.7068 245° Southwest  Level Estimated
11:13AM 57.9685 -34.9130 245° Southwest  Level Estimated
11:14AM 57.9168 -35.1186 245° Southwest  Level Estimated
11:15AM 57.8648 -35.3236 245° Southwest  Level Estimated
11:16AM 57.8125 -35.5280 244° Southwest  Level Estimated
11:17AM 57.7598 -35.7319 244° Southwest  Level Estimated
11:18AM 57.7068 -35.9351 244° Southwest  Level Estimated
11:19AM 57.6535 -36.1377 244° Southwest  Level Estimated
11:20AM 57.5998 -36.3398 244° Southwest  Level Estimated
11:21AM 57.5459 -36.5412 244° Southwest  Level Estimated
11:22AM 57.4916 -36.7421 243° Southwest  Level Estimated
11:23AM 57.4370 -36.9423 243° Southwest  Level Estimated
11:24AM 57.3821 -37.1420 243° Southwest  Level Estimated
11:25AM 57.3268 -37.3410 243° Southwest  Level Estimated
11:26AM 57.2713 -37.5395 243° Southwest  Level Estimated
11:27AM 57.2154 -37.7374 243° Southwest  Level Estimated
11:28AM 57.1593 -37.9346 242° Southwest  Level Estimated
11:29AM 57.1028 -38.1313 242° Southwest  Level Estimated
11:30AM 57.0460 -38.3273 242° Southwest  Level Estimated
11:31AM 56.9889 -38.5228 242° Southwest  Level Estimated
11:32AM 56.9315 -38.7176 242° Southwest  Level Estimated
11:33AM 56.8738 -38.9119 242° Southwest  Level Estimated
11:34AM 56.8158 -39.1055 241° Southwest  Level Estimated
11:35AM 56.7575 -39.2986 241° Southwest  Level Estimated
11:36AM 56.6989 -39.4911 241° Southwest  Level Estimated
11:37AM 56.6400 -39.6829 241° Southwest  Level Estimated
11:38AM 56.5808 -39.8742 241° Southwest  Level Estimated
11:39AM 56.5214 -40.0648 241° Southwest  Level Estimated
11:40AM 56.4616 -40.2549 240° Southwest  Level Estimated
11:41AM 56.4016 -40.4443 240° Southwest  Level Estimated
11:42AM 56.3412 -40.6332 240° Southwest  Level Estimated
11:43AM 56.2806 -40.8214 240° Southwest  Level Estimated
11:44AM 56.2197 -41.0091 240° Southwest  Level Estimated
11:45AM 56.1585 -41.1962 240° Southwest  Level Estimated
11:46AM 56.0970 -41.3827 239° Southwest  Level Estimated
11:47AM 56.0352 -41.5685 239° Southwest  Level Estimated
11:48AM 55.9732 -41.7538 239° Southwest  Level Estimated
11:49AM 55.9109 -41.9385 239° Southwest  Level Estimated
11:50AM 55.8483 -42.1226 239° Southwest  Level Estimated
11:51AM 55.7854 -42.3061 239° Southwest  Level Estimated
11:52AM 55.7223 -42.4890 239° Southwest  Level Estimated
11:53AM 55.6589 -42.6713 238° Southwest  Level Estimated
11:54AM 55.5952 -42.8530 238° Southwest  Level Estimated
11:55AM 55.5312 -43.0342 238° Southwest  Level Estimated
11:56AM 55.4670 -43.2147 238° Southwest  Level Estimated
11:57AM 55.4026 -43.3947 238° Southwest  Level Estimated
11:58AM 55.3378 -43.5740 238° Southwest  Level Estimated
11:59AM 55.2728 -43.7528 238° Southwest  Level Estimated
12:00PM 55.2076 -43.9310 237° Southwest  Level Estimated
12:01PM 55.1420 -44.1086 237° Southwest  Level Estimated
12:02PM 55.0763 -44.2857 237° Southwest  Level Estimated
12:03PM 55.0102 -44.4621 237° Southwest  Level Estimated
12:03PM 63.1500 -54.9333 236° Southwest 310 357 36,000  Level Gander Center
12:04PM 54.9439 -44.6380 237° Southwest  Level Estimated
12:04PM 63.1000 -55.2000 248° West 460 529 36,000  Level Gander Center
12:05PM 54.8774 -44.8133 237° Southwest  Level Estimated
12:05PM 63.0333 -55.4667 241° Southwest 460 529 36,000  Level Gander Center
12:06PM 54.8106 -44.9880 236° Southwest  Level Estimated
12:07PM 54.7436 -45.1621 236° Southwest  Level Estimated
12:07PM 62.9500 -55.9667 250° West 470 541 36,000  Level Gander Center
12:08PM 54.6763 -45.3356 236° Southwest  Level Estimated
12:08PM 62.8833 -56.2333 241° Southwest 470 541 36,000  Level Gander Center
12:09PM 54.6096 -45.5064 236° Southwest  Level Estimated
12:09PM 62.8333 -56.5000 248° West 470 541 36,000  Level Gander Center
12:10PM 62.7667 -56.7500 240° Southwest 470 541 36,000  Level Gander Center
12:11PM 62.7167 -56.8667 227° Southwest 260 299 36,000  Level Montreal Center
12:12PM 62.6500 -57.1500 243° Southwest 450 518 36,000  Level Montreal Center
12:13PM 62.5833 -57.3333 232° Southwest 460 529 36,000  Level Montreal Center
12:14PM 62.5167 -57.5667 238° Southwest 460 529 36,000  Level Montreal Center
12:15PM 62.4500 -57.8000 238° Southwest 460 529 36,000  Level Montreal Center
12:16PM 62.3667 -58.0333 232° Southwest 460 529 36,000  Level Montreal Center
12:17PM 62.3000 -58.2500 237° Southwest 460 529 36,000  Level Montreal Center
12:18PM 62.2167 -58.4833 233° Southwest 460 529 36,000  Level Montreal Center
12:19PM 62.1500 -58.7167 239° Southwest 450 518 36,000  Level Montreal Center
12:20PM 62.0667 -58.9333 231° Southwest 460 529 36,000  Level Montreal Center
12:21PM 62.0000 -59.1333 235° Southwest 460 529 36,000  Level Montreal Center
12:22PM 61.9167 -59.3500 231° Southwest 460 529 36,000  Level Montreal Center
12:23PM 61.8333 -59.5667 231° Southwest 460 529 36,000  Level Montreal Center
12:24PM 61.7833 -59.7833 244° Southwest 460 529 36,000  Level Montreal Center
12:26PM 61.6167 -60.3000 236° Southwest 460 529 36,000  Level Gander Center
12:27PM 61.5500 -60.4500 227° Southwest 460 529 36,000  Level Montreal Center
12:28PM 61.4667 -60.6333 226° Southwest 460 529 36,000  Level Montreal Center
12:29PM 61.3833 -60.8500 231° Southwest 460 529 36,000  Level Montreal Center
12:30PM 61.3000 -61.0667 231° Southwest 460 529 36,000  Level Montreal Center
12:31PM 61.2500 -61.2667 243° Southwest 460 529 36,000  Level Montreal Center
12:32PM 61.1667 -61.4833 231° Southwest 460 529 36,000  Level Montreal Center
12:33PM 61.0833 -61.6667 227° Southwest 450 518 36,000  Level Montreal Center
12:34PM 61.0000 -61.8667 229° Southwest 450 518 36,000  Level Montreal Center
12:35PM 60.9167 -62.0833 232° Southwest 450 518 36,000  Level Montreal Center
12:36PM 60.8333 -62.3000 232° Southwest 460 529 36,000  Level Montreal Center
12:37PM 60.7667 -62.5000 236° Southwest 460 529 36,000  Level Montreal Center
12:38PM 60.6833 -62.7000 230° Southwest 450 518 36,000  Level Montreal Center
12:39PM 60.6000 -62.9000 230° Southwest 440 506 36,000  Level Montreal Center
12:40PM 60.5167 -63.1167 232° Southwest 450 518 36,000  Level Montreal Center
12:41PM 60.4500 -63.3167 236° Southwest 450 518 36,000  Level Montreal Center
12:42PM 60.3667 -63.4833 225° Southwest 450 518 36,000  Level Montreal Center
12:43PM 60.2833 -63.6833 230° Southwest 450 518 36,000  Level Montreal Center
12:44PM 60.2000 -63.8833 230° Southwest 450 518 36,000  Level Montreal Center
12:45PM 60.1167 -64.0500 225° Southwest 450 518 36,000  Level Montreal Center
12:46PM 60.0500 -64.2500 236° Southwest 450 518 36,000  Level Montreal Center
12:47PM 59.9667 -64.4500 230° Southwest 450 518 36,000  Level Montreal Center
12:48PM 59.8833 -64.6500 230° Southwest 440 506 36,000  Level Montreal Center
12:49PM 59.8000 -64.8000 222° Southwest 450 518 36,000  Level Montreal Center
12:50PM 59.7167 -65.0000 230° Southwest 450 518 36,000  Level Montreal Center
12:51PM 59.6333 -65.1667 225° Southwest 450 518 36,000  Level Montreal Center
12:52PM 59.5667 -65.3500 234° Southwest 450 518 36,000  Level Montreal Center
12:53PM 59.4833 -65.5500 231° Southwest 440 506 36,000  Level Montreal Center
12:54PM 59.3833 -65.7333 223° Southwest 440 506 36,000  Level Montreal Center
12:55PM 59.3000 -65.9333 231° Southwest 440 506 36,000  Level Montreal Center
12:56PM 59.2333 -66.0833 229° Southwest 440 506 36,000  Level Montreal Center
12:57PM 59.1500 -66.2667 228° Southwest 440 506 36,000  Level Montreal Center
12:58PM 59.0500 -66.4333 221° Southwest 440 506 36,000  Level Montreal Center
12:59PM 58.9833 -66.6167 235° Southwest 440 506 36,000  Level Montreal Center
01:00PM 58.9000 -66.8000 229° Southwest 440 506 36,000  Level Montreal Center
01:01PM 58.8167 -66.9500 223° Southwest 440 506 36,000  Level Montreal Center
01:02PM 58.7333 -67.1333 229° Southwest 440 506 36,000  Level Montreal Center
01:03PM 58.6333 -67.3167 224° Southwest 440 506 36,000  Level Montreal Center
01:04PM 58.5667 -67.4667 230° Southwest 440 506 36,000  Level Montreal Center
01:05PM 58.4833 -67.6500 229° Southwest 440 506 36,000  Level Montreal Center
01:06PM 58.3833 -67.8333 224° Southwest 440 506 36,000  Level Montreal Center
01:07PM 58.3167 -67.9833 230° Southwest 440 506 36,000  Level Montreal Center
01:08PM 58.2167 -68.1667 224° Southwest 440 506 36,000  Level Montreal Center
01:09PM 58.1500 -68.3333 233° Southwest 450 518 36,000  Level Montreal Center
01:10PM 58.0833 -68.4167 213° Southwest 590 679 36,000  Level Montreal Center
01:11PM 57.9667 -68.5667 214° Southwest 440 506 36,000  Level Montreal Center
01:12PM 57.8833 -68.7167 224° Southwest 440 506 36,000  Level Montreal Center
01:13PM 57.7833 -68.8167 208° Southwest 440 506 36,000  Level Montreal Center
01:14PM 57.6833 -68.9667 219° Southwest 440 506 36,000  Level Montreal Center
01:15PM 57.5833 -69.1167 219° Southwest 430 495 36,000  Level Montreal Center
01:16PM 57.4833 -69.2333 212° Southwest 430 495 36,000  Level Montreal Center
01:17PM 57.4000 -69.3667 221° Southwest 430 495 36,000  Level Montreal Center
01:18PM 57.3000 -69.4833 212° Southwest 430 495 36,000  Level Montreal Center
01:19PM 57.2000 -69.6167 216° Southwest 430 495 36,000  Level Montreal Center
01:20PM 57.1000 -69.7667 219° Southwest 430 495 36,000  Level Montreal Center
01:21PM 57.0000 -69.8667 209° Southwest 440 506 36,000  Level Montreal Center
01:22PM 56.8833 -70.0167 215° Southwest 440 506 36,000  Level Montreal Center
01:23PM 56.7833 -70.1500 216° Southwest 430 495 36,000  Level Montreal Center
01:24PM 56.7000 -70.2500 213° Southwest 430 495 36,000  Level Montreal Center
01:25PM 56.6000 -70.4000 220° Southwest 430 495 36,000  Level Montreal Center
01:26PM 56.5000 -70.5000 209° Southwest 430 495 36,000  Level Montreal Center
01:27PM 56.3833 -70.6333 212° Southwest 430 495 36,000  Level Montreal Center
01:28PM 56.3000 -70.7667 222° Southwest 430 495 36,000  Level Montreal Center
01:29PM 56.2000 -70.8833 213° Southwest 430 495 36,000  Level Montreal Center
01:30PM 56.1000 -71.0167 217° Southwest 430 495 36,000  Level Montreal Center
01:31PM 55.9833 -71.1167 206° Southwest 430 495 36,000  Level Montreal Center
01:32PM 55.9000 -71.2500 222° Southwest 430 495 36,000  Level Montreal Center
01:33PM 55.8000 -71.3833 217° Southwest 430 495 36,000  Level Montreal Center
01:34PM 55.7000 -71.4833 209° Southwest 430 495 36,000  Level Montreal Center
01:35PM 55.5833 -71.6167 213° Southwest 420 483 36,000  Level Montreal Center
01:36PM 55.4833 -71.7167 210° Southwest 430 495 36,000  Level Montreal Center
01:37PM 55.3833 -71.8167 210° Southwest 430 495 36,000  Level Montreal Center
01:38PM 55.3000 -71.9333 219° Southwest 420 483 36,000  Level Montreal Center
01:39PM 55.2000 -72.0333 210° Southwest 420 483 36,000  Level Montreal Center
01:40PM 55.1000 -72.1667 217° Southwest 420 483 36,000  Level Montreal Center
01:41PM 55.0000 -72.2667 210° Southwest 420 483 36,000  Level Montreal Center
01:42PM 54.9000 -72.3833 214° Southwest 420 483 36,000  Level Montreal Center
01:43PM 54.8000 -72.4833 210° Southwest 410 472 36,000  Level Montreal Center
01:44PM 54.7000 -72.6167 218° Southwest 410 472 36,000  Level Montreal Center
01:45PM 54.6167 -72.7000 210° Southwest 410 472 36,000  Level Montreal Center
01:46PM 54.5167 -72.8333 218° Southwest 410 472 36,000  Level Montreal Center
01:47PM 54.4167 -72.9167 206° Southwest 410 472 36,000  Level Montreal Center
01:48PM 54.3333 -73.0500 223° Southwest 410 472 36,000  Level Montreal Center
01:49PM 54.2333 -73.1333 206° Southwest 410 472 36,000  Level Montreal Center
01:50PM 54.1333 -73.2667 218° Southwest 410 472 36,000  Level Montreal Center
01:51PM 54.0333 -73.3500 206° Southwest 420 483 36,000  Level Montreal Center
01:52PM 53.9333 -73.4500 210° Southwest 410 472 36,000  Level Montreal Center
01:53PM 53.8333 -73.5667 215° Southwest 410 472 36,000  Level Montreal Center
01:54PM 53.7333 -73.6500 206° Southwest 410 472 36,000  Level Montreal Center
01:55PM 53.6333 -73.7500 211° Southwest 410 472 36,000  Level Montreal Center
01:56PM 53.5333 -73.8333 206° Southwest 410 472 36,000  Level Montreal Center
01:57PM 53.4167 -73.9333 207° Southwest 410 472 36,000  Level Montreal Center
01:58PM 53.3167 -74.0167 206° Southwest 420 483 36,000  Level Montreal Center
01:59PM 53.2000 -74.1000 203° Southwest 420 483 36,000  Level Montreal Center
02:00PM 53.1000 -74.2000 211° Southwest 410 472 36,000  Level Montreal Center
02:01PM 53.0000 -74.2833 207° Southwest 410 472 36,000  Level Montreal Center
02:02PM 52.9167 -74.3667 211° Southwest 410 472 36,000  Level Montreal Center
02:03PM 52.8167 -74.4667 211° Southwest 410 472 36,000  Level Montreal Center
02:04PM 52.7167 -74.5167 197° South 410 472 36,000  Level Montreal Center
02:05PM 52.5833 -74.6000 201° Southwest 410 472 36,000  Level Montreal Center
02:06PM 52.4833 -74.7000 211° Southwest 410 472 36,000  Level Montreal Center
02:07PM 52.3833 -74.7833 207° Southwest 410 472 36,000  Level Montreal Center
02:08PM 52.2833 -74.8667 207° Southwest 400 460 36,000  Level Montreal Center
02:09PM 52.1833 -74.9500 207° Southwest 420 483 36,000  Level Montreal Center
02:10PM 52.0833 -75.0333 207° Southwest 410 472 36,000  Level Montreal Center
02:11PM 51.9667 -75.1167 204° Southwest 420 483 36,000  Level Montreal Center
02:12PM 51.8667 -75.1667 197° South 410 472 36,000  Level Montreal Center
02:13PM 51.7667 -75.2833 216° Southwest 410 472 36,000  Level Montreal Center
02:14PM 51.6667 -75.3333 197° South 410 472 36,000  Level Montreal Center
02:15PM 51.5500 -75.4167 204° Southwest 410 472 36,000  Level Montreal Center
02:16PM 51.4500 -75.5000 207° Southwest 410 472 36,000  Level Montreal Center
02:17PM 51.3500 -75.5833 208° Southwest 410 472 36,000  Level Montreal Center
02:18PM 51.2500 -75.6667 208° Southwest 410 472 36,000  Level Montreal Center
02:19PM 51.1500 -75.7500 208° Southwest 410 472 36,000  Level Montreal Center
02:20PM 51.0333 -75.8333 204° Southwest 410 472 36,000  Level Montreal Center
02:21PM 50.9333 -75.8833 197° South 410 472 36,000  Level Montreal Center
02:22PM 50.8333 -75.9667 208° Southwest 410 472 36,000  Level Montreal Center
02:23PM 50.7333 -76.0500 208° Southwest 410 472 36,000  Level Montreal Center
02:24PM 50.6333 -76.1167 203° Southwest 410 472 36,000  Level Montreal Center
02:25PM 50.5333 -76.2000 208° Southwest 410 472 36,000  Level Montreal Center
02:26PM 50.4167 -76.2833 204° Southwest 410 472 36,000  Level Montreal Center
02:27PM 50.3167 -76.3667 208° Southwest 410 472 36,000  Level Montreal Center
02:28PM 50.2167 -76.4333 203° Southwest 410 472 36,000  Level Montreal Center
02:29PM 50.1000 -76.4833 195° South 410 472 36,000  Level Montreal Center
02:30PM 50.0000 -76.5667 208° Southwest 410 472 36,000  Level Montreal Center
02:31PM 49.8833 -76.6500 205° Southwest 410 472 36,000  Level Montreal Center
02:32PM 49.7833 -76.7167 203° Southwest 410 472 36,000  Level Montreal Center
02:33PM 49.6833 -76.8000 208° Southwest 410 472 36,000  Level Montreal Center
02:34PM 49.5833 -76.8667 203° Southwest 410 472 36,000  Level Montreal Center
02:35PM 49.4833 -76.9500 208° Southwest 400 460 36,000 99 Level Montreal Center
02:36PM 49.3667 -77.0000 196° South 430 495 36,200 595 Climbing Montreal Center
02:37PM 49.2667 -77.1000 213° Southwest 400 460 37,200 850 Climbing Montreal Center
02:38PM 49.1667 -77.1500 198° South 400 460 37,900 400 Climbing Montreal Center
02:39PM 49.0667 -77.2167 204° Southwest 420 483 38,000 50 Climbing Montreal Center
02:40PM 48.9667 -77.3000 209° Southwest 410 472 38,000  Level Montreal Center
02:41PM 48.8333 -77.3667 198° South 410 472 38,000  Level Montreal Center
02:42PM 48.7333 -77.4500 209° Southwest 410 472 38,000  Level Montreal Center
02:43PM 48.6167 -77.5167 201° Southwest 410 472 38,000  Level Montreal Center
02:44PM 48.5333 -77.5667 202° Southwest 410 472 38,000  Level Montreal Center
02:45PM 48.4333 -77.6333 204° Southwest 410 472 38,000  Level Montreal Center
02:46PM 48.3167 -77.7167 205° Southwest 410 472 38,000  Level Montreal Center
02:47PM 48.2167 -77.7833 204° Southwest 410 472 38,000  Level Montreal Center
02:48PM 48.1000 -77.8500 201° Southwest 420 483 38,000  Level Montreal Center
02:49PM 47.9833 -77.9167 201° Southwest 410 472 38,000  Level Montreal Center
02:50PM 47.8667 -77.9667 196° South 420 483 38,000  Level Montreal Center
02:51PM 47.7667 -78.0333 204° Southwest 420 483 38,000  Level Montreal Center
02:52PM 47.6667 -78.1167 209° Southwest 420 483 38,000  Level Montreal Center
02:53PM 47.5500 -78.1833 201° Southwest 420 483 38,000  Level Montreal Center
02:54PM 47.3667 -78.2500 194° South 430 495 38,000  Level Toronto Center
02:55PM 47.2500 -78.3000 196° South 430 495 38,000  Level Toronto Center
02:56PM 47.1500 -78.3833 210° Southwest 420 483 38,000  Level Toronto Center
02:57PM 47.0500 -78.4333 199° South 420 483 38,000  Level Toronto Center
02:58PM 46.9500 -78.5167 210° Southwest 420 483 38,000  Level Toronto Center
03:04PM 46.3029 -78.8832 201° Southwest 417 480 38,000  Level FlightAware ADS-B (CYYZ)
03:05PM 46.2517 -78.9112 201° Southwest 416 479 38,000  Level FlightAware ADS-B (CYYZ)
03:05PM 46.2018 -78.9383 201° Southwest 416 479 38,000  Level FlightAware ADS-B (CYYZ)
03:06PM 46.1405 -78.9717 201° Southwest 415 478 38,000  Level FlightAware ADS-B (CYYZ)
03:07PM 46.0335 -79.0297 201° Southwest 417 480 38,000  Level FlightAware ADS-B (CYYZ)
03:07PM 45.9787 -79.0593 201° Southwest 417 480 38,000  Level FlightAware ADS-B (CYYZ)
03:08PM 45.8703 -79.1176 201° Southwest 418 481 38,000  Level FlightAware ADS-B (CYYZ)
03:09PM 45.8181 -79.1457 201° Southwest 419 482 38,000  Level FlightAware ADS-B (CYYZ)
03:10PM 45.7120 -79.2024 201° Southwest 418 481 38,000  Level FlightAware ADS-B (CYYZ)
03:10PM 45.6564 -79.2320 201° Southwest 417 480 38,000  Level FlightAware ADS-B (CYYZ)
03:11PM 45.6102 -79.2565 201° Southwest 416 479 38,000  Level FlightAware ADS-B (CYYZ)
03:12PM 45.4905 -79.3202 201° Southwest 415 478 38,000  Level FlightAware ADS-B (CYYZ)
03:13PM 45.3834 -79.3767 201° Southwest 416 479 38,000  Level FlightAware ADS-B (CYYZ)
03:13PM 45.3296 -79.4051 201° Southwest 417 480 38,000  Level FlightAware ADS-B (CYYZ)
03:14PM 45.2756 -79.4335 201° Southwest 417 480 38,000  Level FlightAware ADS-B (CYYZ)
03:14PM 45.2199 -79.4627 201° Southwest 417 480 38,000  Level FlightAware ADS-B (CYYZ)
03:15PM 45.1750 -79.4862 201° Southwest 417 480 38,000  Level FlightAware ADS-B (CYYZ)
03:16PM 45.0610 -79.5457 201° Southwest 416 479 38,000  Level FlightAware ADS-B (CYYZ)
03:17PM 44.9960 -79.5797 201° Southwest 415 478 38,000  Level FlightAware ADS-B (CYYZ)
03:18PM 44.8845 -79.6374 201° Southwest 415 478 38,000  Level FlightAware ADS-B (CYYZ)
03:18PM 44.8272 -79.6670 201° Southwest 415 478 38,000  Level FlightAware ADS-B (CYYZ)
03:19PM 44.7661 -79.6985 201° Southwest 416 479 38,000  Level FlightAware ADS-B (CYYZ)
03:20PM 44.6613 -79.7524 201° Southwest 416 479 38,000  Level FlightAware ADS-B (CYYZ)
03:20PM 44.5769 -79.8006 207° Southwest 414 476 38,000  Level FlightAware ADS-B (CYYZ)
03:21PM 44.5628 -79.8110 209° Southwest 413 475 38,000  Level FlightAware ADS-B (CYYZ)
03:21PM 44.4686 -79.8951 214° Southwest 409 471 38,000  Level FlightAware ADS-B (CYYZ)
03:22PM 44.3726 -79.9820 213° Southwest 408 470 38,000  Level FlightAware ADS-B (CYYZ)
03:23PM 44.3278 -80.0222 213° Southwest 408 470 38,000  Level FlightAware ADS-B (CYYZ)
03:24PM 44.1833 -80.1512 213° Southwest 407 468 38,000  Level FlightAware ADS-B (CYYZ)
03:25PM 44.1354 -80.1939 213° Southwest 406 467 38,000  Level FlightAware ADS-B (CYYZ)
03:25PM 44.0877 -80.2363 213° Southwest 403 464 38,000  Level FlightAware ADS-B (CYYZ)
03:27PM 43.9491 -80.3589 213° Southwest 389 448 38,000  Level FlightAware ADS-B (CYYZ)
03:28PM 43.8618 -80.4359 213° Southwest 391 450 38,000  Level FlightAware ADS-B (CYYZ)
03:29PM 43.7699 -80.5168 213° Southwest 391 450 38,000  Level FlightAware ADS-B (CYYZ)
03:29PM 43.7218 -80.5590 213° Southwest 390 449 38,000  Level FlightAware ADS-B (CYYZ)
03:30PM 43.7110 -80.5683 212° Southwest 390 449 38,000  Level FlightAware ADS-B (CZBA)
03:30PM 43.6399 -80.6303 213° Southwest 387 445 38,000  Level FlightAware ADS-B (CYYZ)
03:31PM 43.6078 -80.6582 212° Southwest 385 443 38,000  Level FlightAware ADS-B (CZBA)
03:31PM 43.5425 -80.7149 213° Southwest 383 441 38,000  Level FlightAware ADS-B (CYYZ)
03:32PM 43.5368 -80.7199 212° Southwest 386 444 38,000  Level FlightAware ADS-B
03:32PM 43.4501 -80.7952 213° Southwest 385 443 38,000  Level FlightAware ADS-B (CYYZ)
03:33PM 43.4064 -80.8330 213° Southwest 384 442 38,000  Level FlightAware ADS-B (CYYZ)
03:33PM 43.3601 -80.8729 213° Southwest 384 442 38,000  Level FlightAware ADS-B (CYYZ)
03:34PM 43.2687 -80.9516 213° Southwest 384 442 38,000  Level FlightAware ADS-B (CYYZ)
03:35PM 43.1791 -81.0284 213° Southwest 382 440 38,000  Level FlightAware ADS-B (CYYZ)
03:36PM 43.1344 -81.0666 213° Southwest 380 437 38,000  Level FlightAware ADS-B (CYYZ)
03:37PM 43.0442 -81.1431 210° Southwest 385 443 38,000  Level FlightAware ADS-B (CYYZ)
03:38PM 42.9627 -81.1945 205° Southwest 393 452 38,000  Level FlightAware ADS-B (CYYZ)
03:39PM 42.8631 -81.2569 205° Southwest 392 451 38,000  Level FlightAware ADS-B (CYYZ)
03:39PM 42.8134 -81.2877 205° Southwest 393 452 38,000  Level FlightAware ADS-B (CYYZ)
03:40PM 42.7143 -81.3487 205° Southwest 389 448 38,000  Level FlightAware ADS-B (CYYZ)
03:41PM 42.6162 -81.4088 205° Southwest 388 447 38,000  Level FlightAware ADS-B (CYYZ)
03:42PM 42.5670 -81.4388 205° Southwest 388 447 38,000  Level FlightAware ADS-B (CYYZ)
03:43PM 42.4704 -81.4975 205° Southwest 382 440 38,000  Level FlightAware ADS-B (CYYZ)
03:44PM 42.3731 -81.5567 205° Southwest 384 442 38,000  Level FlightAware ADS-B (CYYZ)
03:45PM 42.2916 -81.6061 205° Southwest 386 444 38,000  Level FlightAware ADS-B (CYYZ)
03:45PM 42.2277 -81.6448 205° Southwest 379 436 38,000  Level FlightAware ADS-B (CYYZ)
03:46PM 42.1806 -81.6731 205° Southwest 373 429 38,000  Level FlightAware ADS-B (CYYZ)
03:47PM 42.0858 -81.7302 205° Southwest 370 426 38,000  Level FlightAware ADS-B (CYYZ)
03:48PM 42.0080 -81.7767 205° Southwest 363 418 38,000  Level FlightAware ADS-B (CYYZ)
03:48PM 41.9625 -81.8040 205° Southwest 359 413 38,000  Level FlightAware ADS-B (CYYZ)
03:49PM 41.9171 -81.8311 205° Southwest 350 403 38,000  Level FlightAware ADS-B (CYYZ)
03:49PM 41.8776 -81.8547 205° Southwest 341 392 38,000  Level FlightAware ADS-B (CYYZ)
03:50PM 41.7913 -81.9062 205° Southwest 338 389 38,000  Level FlightAware ADS-B (CYYZ)
03:51PM 41.7448 -81.9339 205° Southwest 336 387 38,000  Level FlightAware ADS-B (CYYZ)
03:52PM 41.6703 -81.9781 204° Southwest 334 384 38,000  Level FlightAware ADS-B (CYYZ)
03:53PM 41.5775 -82.0331 204° Southwest 337 388 38,000  Level FlightAware ADS-B (CYYZ)
03:53PM 41.5477 -82.0506 204° Southwest 337 388 38,000  Level FlightAware ADS-B (CYYZ)
03:54PM 41.4694 -82.0967 204° Southwest 337 388 38,000  Level Cleveland Center
03:54PM 41.4495 -82.1085 204° Southwest 337 388 38,000  Level FlightAware ADS-B (CYYZ)
03:55PM 41.4142 -82.1291 204° Southwest 338 389 38,000  Level FlightAware ADS-B (CYYZ)
03:55PM 41.3694 -82.1558 204° Southwest 337 388 38,000  Level Cleveland Center
03:55PM 41.3330 -82.1711 196° South 347 399 38,000  Level FlightAware ADS-B (CYYZ)
03:56PM 41.2772 -82.1917 196° South 343 395 38,000  Level Cleveland Center
03:57PM 41.1833 -82.2256 195° South 345 397 38,000  Level Cleveland Center
03:58PM 41.0900 -82.2592 195° South 346 398 38,000  Level Cleveland Center
03:59PM 40.9961 -82.2917 195° South 346 398 38,000  Level Cleveland Center
04:00PM 40.9019 -82.3242 195° South 346 398 38,000  Level Cleveland Center
04:01PM 40.7942 -82.3633 195° South 345 397 38,000  Level Cleveland Center
04:02PM 40.7039 -82.3953 195° South 339 390 38,000 -336 Level Cleveland Center
04:03PM 40.6144 -82.4267 195° South 333 383 37,300 -823 Descending Cleveland Center
04:04PM 40.5286 -82.4569 195° South 322 371 36,300 -237 Descending Cleveland Center
04:09PM 40.1105 -82.5911 195° South 331 381 36,000 -36 Descending FlightAware ADS-B
04:13PM 39.7196 -82.6178 183° South 368 423 36,000  Level FlightAware ADS-B
04:13PM 39.6656 -82.6214 183° South 369 425 36,000  Level FlightAware ADS-B
04:14PM 39.5867 -82.6268 183° South 371 427 36,000  Level FlightAware ADS-B
04:15PM 39.5229 -82.6311 183° South 374 430 36,000  Level FlightAware ADS-B
04:16PM 39.3797 -82.6406 183° South 377 434 36,000  Level FlightAware ADS-B
04:17PM 39.2355 -82.6325 170° South 400 460 36,000  Level FlightAware ADS-B
04:18PM 39.1634 -82.6154 170° South 399 459 36,000  Level FlightAware ADS-B
04:19PM 39.1108 -82.6030 170° South 398 458 36,000  Level FlightAware ADS-B
04:19PM 39.0356 -82.5857 170° South 398 458 36,000  Level FlightAware ADS-B
04:20PM 38.9474 -82.5663 170° South 399 459 36,000  Level FlightAware ADS-B
04:21PM 38.8723 -82.5494 170° South 401 461 36,000  Level FlightAware ADS-B
04:21PM 38.7946 -82.5318 170° South 402 463 36,000  Level FlightAware ADS-B
04:22PM 38.7164 -82.5153 170° South 397 457 36,000  Level Indianapolis Center
04:23PM 38.5947 -82.4883 170° South 398 458 36,000  Level Indianapolis Center
04:24PM 38.4933 -82.5125 191° South 379 436 36,000  Level Indianapolis Center
04:25PM 38.3911 -82.5386 191° South 376 433 36,000  Level Indianapolis Center
04:26PM 38.2708 -82.5714 192° South 376 433 36,000  Level Indianapolis Center
04:27PM 38.1672 -82.5978 191° South 376 433 36,000  Level Indianapolis Center
04:29PM 38.0639 -82.6242 191° South 377 434 36,000  Level Indianapolis Center
04:30PM 37.9594 -82.6511 191° South 378 435 36,000  Level Indianapolis Center
04:31PM 37.8553 -82.6767 191° South 379 436 36,000  Level Indianapolis Center
04:32PM 37.7336 -82.7078 191° South 379 436 36,000  Level Indianapolis Center
04:33PM 37.6286 -82.7350 192° South 380 437 36,000  Level Indianapolis Center
04:34PM 37.5233 -82.7619 191° South 381 438 36,000  Level Indianapolis Center
04:35PM 37.4178 -82.7886 191° South 383 441 36,000  Level Indianapolis Center
04:36PM 37.3117 -82.8150 191° South 384 442 36,000  Level Indianapolis Center
04:37PM 37.2053 -82.8408 191° South 385 443 36,000  Level Indianapolis Center
04:38PM 37.0808 -82.8719 191° South 387 445 36,000  Level Indianapolis Center
04:39PM 36.9892 -82.8953 191° South 387 445 36,000  Level Indianapolis Center
04:40PM 36.8586 -82.9278 191° South 390 449 36,000  Level Indianapolis Center
04:41PM 36.7467 -82.9544 191° South 395 455 36,000  Level Indianapolis Center
04:42PM 36.6392 -82.9811 191° South 395 455 36,000  Level Indianapolis Center
04:43PM 36.5311 -83.0075 191° South 395 455 36,000  Level Indianapolis Center
04:44PM 36.4236 -83.0336 191° South 395 455 36,000  Level Indianapolis Center
04:45PM 36.3317 -83.0567 191° South 392 451 36,000  Level Atlanta Center
04:46PM 36.2256 -83.0839 192° South 392 451 36,000  Level Atlanta Center
04:47PM 36.1172 -83.1083 190° South 392 451 36,000  Level Atlanta Center
04:52PM 35.6051 -83.2327 191° South 391 450 36,000  Level FlightAware ADS-B (KDZJ)
04:52PM 35.5058 -83.2564 191° South 391 450 36,000  Level FlightAware ADS-B (KDZJ)
04:54PM 35.3320 -83.2980 191° South 392 451 36,000  Level FlightAware ADS-B (KDZJ)
04:55PM 35.2306 -83.3221 191° South 391 450 36,000  Level FlightAware ADS-B (KDZJ)
04:56PM 35.1198 -83.3484 191° South 391 450 36,000  Level FlightAware ADS-B (KDZJ)
04:57PM 35.0628 -83.3620 191° South 393 452 36,000  Level FlightAware ADS-B (KDZJ)
04:57PM 34.9727 -83.3834 191° South 394 453 36,000  Level FlightAware ADS-B (KDZJ)
04:58PM 34.8969 -83.4013 191° South 396 456 36,000  Level FlightAware ADS-B (KDZJ)
04:59PM 34.8216 -83.4190 191° South 396 456 36,000  Level FlightAware ADS-B (KDZJ)
04:59PM 34.7594 -83.4335 191° South 396 456 36,000  Level FlightAware ADS-B (KDZJ)
05:00PM 34.6979 -83.4480 191° South 397 457 36,000  Level FlightAware ADS-B (KDZJ)
05:01PM 34.6419 -83.4611 191° South 391 450 36,000  Level FlightAware ADS-B (KDZJ)
05:01PM 34.5697 -83.4780 191° South 393 452 36,000  Level FlightAware ADS-B (KDZJ)
05:02PM 34.4986 -83.4946 191° South 392 451 36,000  Level FlightAware ADS-B (KDZJ)
05:03PM 34.4225 -83.5123 191° South 392 451 36,000  Level FlightAware ADS-B (KDZJ)
05:03PM 34.3502 -83.5292 191° South 393 452 36,000  Level FlightAware ADS-B (KDZJ)
05:04PM 34.2831 -83.5449 191° South 395 455 36,000  Level FlightAware ADS-B (KDZJ)
05:05PM 34.2032 -83.5634 191° South 395 455 36,000  Level FlightAware ADS-B (KDZJ)
05:05PM 34.1340 -83.5794 191° South 394 453 36,000  Level FlightAware ADS-B (KDZJ)
05:06PM 34.0628 -83.5950 191° South 411 473 36,000  Level Atlanta Center
05:07PM 33.9542 -83.6206 191° South 411 473 36,000  Level Atlanta Center
05:08PM 33.8417 -83.6436 190° South 411 473 36,000  Level Atlanta Center
05:09PM 33.7331 -83.6692 191° South 411 473 36,000  Level Atlanta Center
05:10PM 33.6247 -83.6969 192° South 411 473 36,000  Level Atlanta Center
05:11PM 33.5244 -83.7200 191° South 411 473 36,000  Level Atlanta Center
05:12PM 33.4139 -83.7475 192° South 411 473 36,000 202 Level Atlanta Center
05:13PM 33.3033 -83.7728 191° South 411 473 36,400 504 Climbing Atlanta Center
05:14PM 33.1908 -83.7956 190° South 406 467 37,000 298 Climbing Atlanta Center
05:15PM 33.0844 -83.8256 193° South 406 467 37,000  Level Atlanta Center
05:16PM 32.9758 -83.8458 189° South 406 467 37,000  Level Atlanta Center
05:17PM 32.8589 -83.8706 190° South 406 467 37,000  Level Atlanta Center
05:18PM 32.7483 -83.8956 191° South 406 467 37,000  Level Atlanta Center
05:19PM 32.6419 -83.9203 191° South 406 467 37,000  Level Atlanta Center
05:20PM 32.5333 -83.9453 191° South 406 467 37,000  Level Atlanta Center
05:21PM 32.4228 -83.9700 191° South 406 467 37,000  Level Atlanta Center
05:22PM 32.3144 -83.9947 191° South 406 467 37,000  Level Atlanta Center
05:23PM 32.2058 -84.0167 190° South 406 467 37,000  Level Atlanta Center
05:24PM 32.1078 -84.0414 192° South 406 467 37,000  Level Atlanta Center
05:25PM 31.9969 -84.0633 190° South 406 467 37,000  Level Atlanta Center
05:27PM 31.7533 -84.1192 191° South 410 472 37,000  Level Jacksonville Center
05:33PM 31.0929 -84.2589 191° South 412 474 37,000  Level FlightAware ADS-B
05:34PM 31.0176 -84.2752 191° South 413 475 37,000  Level FlightAware ADS-B
05:34PM 30.9563 -84.2883 191° South 413 475 37,000  Level FlightAware ADS-B
05:35PM 30.8916 -84.3023 191° South 414 476 37,000  Level FlightAware ADS-B
05:35PM 30.8111 -84.3195 191° South 416 479 37,000  Level FlightAware ADS-B
05:36PM 30.7534 -84.3318 191° South 417 480 37,000  Level FlightAware ADS-B
05:37PM 30.6742 -84.3393 182° South 428 493 37,000  Level FlightAware ADS-B
05:37PM 30.6155 -84.3371 176° South 433 498 37,000  Level FlightAware ADS-B
05:38PM 30.5462 -84.3260 169° South 440 506 37,000  Level FlightAware ADS-B
05:38PM 30.4565 -84.2968 160° South 452 520 37,000  Level FlightAware ADS-B
05:39PM 30.3974 -84.2673 154° Southeast 460 529 37,000  Level FlightAware ADS-B
05:39PM 30.3411 -84.2314 150° Southeast 466 536 37,000  Level FlightAware ADS-B
05:40PM 30.2646 -84.1823 151° Southeast 467 537 37,000  Level FlightAware ADS-B
05:41PM 30.1996 -84.1403 151° Southeast 468 539 37,000  Level FlightAware ADS-B
05:41PM 30.1154 -84.0855 151° Southeast 469 540 37,000  Level FlightAware ADS-B
05:42PM 30.0579 -84.0481 150° Southeast 466 536 37,000  Level FlightAware ADS-B
05:43PM 29.9835 -83.9997 151° Southeast 456 525 37,000  Level FlightAware ADS-B
05:44PM 29.8298 -83.9003 151° Southeast 458 527 37,000  Level FlightAware ADS-B
05:45PM 29.7264 -83.8350 151° Southeast 453 521 37,000  Level Jacksonville Center
05:46PM 29.6122 -83.7622 151° Southeast 458 527 37,000  Level Jacksonville Center
05:47PM 29.4978 -83.6919 152° Southeast 458 527 37,000  Level Jacksonville Center
05:48PM 29.3856 -83.6194 151° Southeast 458 527 37,000 302 Level Jacksonville Center
05:54PM 28.7266 -83.1960 151° Southeast 478 550 39,000 325 Climbing FlightAware ADS-B
05:54PM 28.6631 -83.1559 151° Southeast 478 550 39,000  Level FlightAware ADS-B
05:55PM 28.5982 -83.1151 151° Southeast 471 542 39,000  Level FlightAware ADS-B
05:56PM 28.4262 -83.0071 151° Southeast 472 543 39,000  Level FlightAware ADS-B
05:57PM 28.3300 -82.9470 151° Southeast 475 547 39,000  Level FlightAware ADS-B
05:58PM 28.2622 -82.9046 151° Southeast 479 551 39,000  Level FlightAware ADS-B
05:58PM 28.1874 -82.8580 151° Southeast 481 554 39,000  Level FlightAware ADS-B
06:00PM 28.0244 -82.7567 151° Southeast 490 564 39,000  Level FlightAware ADS-B
06:00PM 27.9430 -82.7062 151° Southeast 491 565 39,000  Level FlightAware ADS-B
06:01PM 27.8279 -82.6345 158° South 486 559 39,000  Level FlightAware ADS-B
06:02PM 27.7588 -82.6183 178° South 465 535 39,000  Level FlightAware ADS-B
06:07PM 27.1120 -82.6015 179° South 464 534 39,000  Level FlightAware ADS-B
06:07PM 27.0507 -82.5999 179° South 466 536 39,000  Level FlightAware ADS-B
06:08PM 26.9394 -82.5969 179° South 465 535 39,000  Level FlightAware ADS-B
06:09PM 26.8842 -82.5955 175° South 470 541 39,000  Level FlightAware ADS-B
06:11PM 26.6497 -82.5014 156° South 492 566 39,000  Level FlightAware ADS-B
06:11PM 26.5696 -82.4617 156° South 494 568 39,000  Level FlightAware ADS-B
06:13PM 26.3275 -82.3418 156° South 495 570 39,000  Level FlightAware ADS-B
06:14PM 26.2482 -82.3026 156° South 492 566 39,000  Level FlightAware ADS-B
06:14PM 26.1635 -82.2609 156° South 491 565 39,000  Level FlightAware ADS-B
06:15PM 26.0997 -82.2295 156° South 490 564 39,000  Level FlightAware ADS-B
06:16PM 26.0142 -82.1875 156° South 490 564 39,000  Level FlightAware ADS-B
06:16PM 25.9353 -82.1488 156° South 486 559 39,000  Level FlightAware ADS-B
06:17PM 25.8335 -82.0990 156° South 484 557 39,000  Level FlightAware ADS-B
06:18PM 25.7678 -82.0669 156° South 484 557 39,000  Level FlightAware ADS-B
06:18PM 25.7054 -82.0365 156° South 486 559 39,000  Level FlightAware ADS-B
06:19PM 25.5673 -81.9691 156° South 487 560 39,000  Level FlightAware ADS-B
06:20PM 25.4785 -81.9259 156° South 487 560 39,000  Level FlightAware ADS-B
06:21PM 25.3433 -81.8611 156° South 489 563 39,000  Level Miami Center
06:22PM 25.2181 -81.8008 156° South 489 563 39,000 -350 Level Miami Center
06:23PM 25.0967 -81.7433 157° South 489 563 38,300 -1,800 Descending Miami Center
06:24PM 24.9664 -81.7106 167° South 489 563 35,400 -2,800 Descending Miami Center
06:25PM 24.8358 -81.6803 168° South 482 555 32,700 -2,750 Descending Miami Center
06:26PM 24.7031 -81.6500 168° South 477 549 29,900 -2,200 Descending Miami Center
06:27PM 24.5753 -81.5972 159° South 490 564 28,300 -1,300 Descending Miami Center
06:28PM 24.4689 -81.5269 149° Southeast 475 547 27,300 -1,000 Descending Miami Center
06:30PM 24.3363 -81.6070 209° Southwest  Level Estimated
06:37PM 23.6122 -82.0405 209° Southwest  Level Estimated
06:38PM 23.5086 -82.1020 209° Southwest  Level Estimated
06:39PM 23.4050 -82.1635 209° Southwest  Level Estimated
06:40PM 23.3014 -82.2248 209° Southwest  Level Estimated
06:41PM 23.1979 -82.2860 212° Southwest  Level Estimated
06:42PM 23.0943 -82.3472 231° Southwest  Level Estimated
06:43PM 22.9907 -82.4082 223° Southwest  Level Estimated
06:44PM 22.9891 -82.4091 223° Southwest  Level Estimated
06:45PM 22.9891 -82.4091 223° Southwest  Level Estimated
06:46PM 22.9891 -82.4091 223° Southwest  Level Estimated
06:47PM 22.9891 -82.4091 223° Southwest  Level Estimated
06:48PM 22.9891 -82.4091 223° Southwest  Level Estimated
06:49PM 22.9891 -82.4091 223° Southwest  Level Estimated
06:50PM 22.9891 -82.4091 223° Southwest  Level Estimated
06:51PM 22.9891 -82.4091 223° Southwest  Level Estimated
06:52PM 22.9891 -82.4091 223° Southwest  Level Estimated
06:53PM 22.9891 -82.4091 223° Southwest  Level Estimated
06:54PM 22.9891 -82.4091 223° Southwest  Level Estimated
06:55PM 22.9891 -82.4091 223° Southwest  Level Estimated
06:56PM 22.9891 -82.4091 223° Southwest  Level Estimated
06:57PM 22.9891 -82.4091 223° Southwest  Level Estimated
06:58PM 22.9891 -82.4091 223° Southwest  Level Estimated
06:59PM 22.9891 -82.4091 223° Southwest  Level Estimated
07:00PM 22.9891 -82.4091 223° Southwest  Level Estimated
07:01PM 22.9891 -82.4091 223° Southwest  Level Estimated
07:02PM 22.9891 -82.4091 223° Southwest  Level Estimated
07:03PM 22.9891 -82.4091 223° Southwest  Level Estimated
07:04PM 22.9891 -82.4091 223° Southwest  Level Estimated
07:05PM 22.9891 -82.4091 223° Southwest  Level Estimated
07:06PM 22.9891 -82.4091 223° Southwest  Level Estimated
07:07PM 22.9891 -82.4091 223° Southwest  Level Estimated
07:08PM 22.9891 -82.4091 223° Southwest  Level Estimated
07:09PM 22.9891 -82.4091 223° Southwest  Level Estimated
07:10PM 22.9891 -82.4091 223° Southwest  Level Estimated